createdAt,value
2018-11-26T00:00:35.811Z,74.32
2018-11-26T00:01:10.505Z,73.71
2018-11-26T00:01:45.158Z,74.04
2018-11-26T00:02:19.794Z,74.13
2018-11-26T00:02:54.797Z,74.10
2018-11-26T00:03:29.501Z,73.54
2018-11-26T00:04:04.132Z,73.60
2018-11-26T00:04:38.790Z,74.26
2018-11-26T00:05:13.866Z,74.22
2018-11-26T00:05:48.531Z,73.68
2018-11-26T00:06:23.357Z,74.31
2018-11-26T00:06:58.089Z,74.18
2018-11-26T00:07:32.695Z,73.84
2018-11-26T00:08:09.236Z,73.60
2018-11-26T00:08:43.911Z,73.34
2018-11-26T00:09:18.960Z,73.93
2018-11-26T00:09:58.011Z,73.55
2018-11-26T00:10:44.024Z,73.90
2018-11-26T00:11:33.568Z,73.22
2018-11-26T00:12:08.272Z,73.43
2018-11-26T00:12:43.030Z,73.43
2018-11-26T00:13:17.608Z,73.31
2018-11-26T00:13:52.235Z,73.14
2018-11-26T00:14:26.928Z,73.65
2018-11-26T00:15:01.630Z,73.44
2018-11-26T00:15:36.600Z,73.57
2018-11-26T00:16:11.232Z,73.67
2018-11-26T00:16:45.985Z,73.37
2018-11-26T00:17:20.585Z,73.89
2018-11-26T00:17:55.349Z,73.42
2018-11-26T00:18:29.963Z,73.86
2018-11-26T00:19:04.916Z,73.62
2018-11-26T00:19:39.661Z,73.17
2018-11-26T00:20:14.354Z,73.15
2018-11-26T00:20:49.043Z,73.32
2018-11-26T00:21:23.751Z,73.31
2018-11-26T00:21:58.466Z,72.83
2018-11-26T00:22:33.180Z,72.98
2018-11-26T00:23:08.023Z,73.44
2018-11-26T00:23:42.625Z,72.87
2018-11-26T00:24:17.218Z,73.13
2018-11-26T00:24:51.913Z,72.77
2018-11-26T00:25:26.634Z,72.88
2018-11-26T00:26:01.918Z,72.85
2018-11-26T00:26:36.593Z,72.24
2018-11-26T00:27:11.236Z,72.37
2018-11-26T00:27:46.399Z,72.07
2018-11-26T00:28:21.176Z,72.60
2018-11-26T00:28:55.802Z,72.30
2018-11-26T00:29:30.808Z,71.99
2018-11-26T00:30:06.758Z,72.58
2018-11-26T00:30:41.516Z,72.02
2018-11-26T00:31:16.372Z,71.55
2018-11-26T00:31:51.080Z,71.81
2018-11-26T00:32:25.695Z,71.46
2018-11-26T00:33:00.313Z,71.82
2018-11-26T00:33:34.952Z,71.82
2018-11-26T00:34:09.595Z,71.23
2018-11-26T00:34:44.259Z,71.57
2018-11-26T00:35:18.869Z,71.37
2018-11-26T00:35:53.541Z,71.39
2018-11-26T00:36:28.269Z,71.71
2018-11-26T00:37:02.984Z,71.84
2018-11-26T00:37:37.895Z,71.56
2018-11-26T00:38:12.603Z,72.12
2018-11-26T00:38:47.264Z,71.26
2018-11-26T00:39:21.873Z,71.49
2018-11-26T00:39:56.885Z,71.13
2018-11-26T00:40:31.514Z,71.11
2018-11-26T00:41:06.706Z,70.91
2018-11-26T00:41:41.335Z,70.74
2018-11-26T00:42:15.964Z,70.72
2018-11-26T00:42:50.892Z,71.05
2018-11-26T00:43:25.515Z,71.14
2018-11-26T00:44:00.231Z,70.72
2018-11-26T00:44:34.902Z,70.60
2018-11-26T00:45:11.527Z,70.53
2018-11-26T00:45:46.202Z,70.90
2018-11-26T00:46:20.883Z,71.21
2018-11-26T00:46:55.839Z,71.03
2018-11-26T00:47:30.577Z,71.04
2018-11-26T00:48:05.589Z,71.44
2018-11-26T00:48:40.556Z,70.95
2018-11-26T00:49:15.239Z,71.38
2018-11-26T00:49:50.108Z,71.24
2018-11-26T00:50:24.735Z,70.62
2018-11-26T00:50:59.386Z,70.95
2018-11-26T00:51:34.655Z,71.31
2018-11-26T00:52:09.356Z,71.38
2018-11-26T00:52:44.310Z,71.13
2018-11-26T00:53:18.984Z,71.55
2018-11-26T00:53:53.588Z,70.83
2018-11-26T00:54:28.230Z,70.85
2018-11-26T00:55:02.923Z,70.87
2018-11-26T00:55:37.980Z,70.87
2018-11-26T00:56:12.759Z,70.90
2018-11-26T00:56:47.479Z,70.89
2018-11-26T00:57:22.058Z,71.24
2018-11-26T00:57:56.957Z,71.24
2018-11-26T00:58:32.029Z,70.79
2018-11-26T00:59:06.737Z,70.57
2018-11-26T00:59:41.640Z,70.76
2018-11-26T01:00:16.545Z,70.57
2018-11-26T01:00:51.286Z,70.38
2018-11-26T01:01:26.271Z,71.05
2018-11-26T01:02:01.037Z,70.85
2018-11-26T01:02:36.072Z,70.49
2018-11-26T01:03:10.815Z,71.31
2018-11-26T01:03:45.393Z,70.42
2018-11-26T01:04:20.028Z,70.55
2018-11-26T01:04:55.088Z,70.57
2018-11-26T01:05:38.989Z,70.55
2018-11-26T01:06:13.668Z,70.68
2018-11-26T01:06:48.282Z,71.06
2018-11-26T01:07:22.945Z,70.70
2018-11-26T01:07:57.578Z,70.46
2018-11-26T01:08:32.189Z,70.80
2018-11-26T01:09:08.471Z,70.96
2018-11-26T01:09:43.095Z,70.47
2018-11-26T01:10:17.716Z,71.03
2018-11-26T01:10:52.690Z,70.53
2018-11-26T01:11:27.416Z,70.96
2018-11-26T01:12:01.997Z,70.88
2018-11-26T01:12:36.664Z,71.45
2018-11-26T01:13:11.807Z,71.25
2018-11-26T01:13:46.372Z,71.19
2018-11-26T01:14:20.971Z,71.07
2018-11-26T01:14:55.595Z,71.37
2018-11-26T01:15:30.375Z,71.37
2018-11-26T01:16:05.736Z,71.62
2018-11-26T01:16:40.375Z,71.25
2018-11-26T01:17:14.986Z,71.02
2018-11-26T01:17:49.575Z,71.12
2018-11-26T01:18:24.257Z,71.00
2018-11-26T01:18:58.901Z,71.39
2018-11-26T01:19:33.515Z,71.15
2018-11-26T01:20:08.531Z,71.24
2018-11-26T01:20:43.208Z,71.53
2018-11-26T01:21:17.832Z,71.21
2018-11-26T01:21:52.391Z,71.06
2018-11-26T01:22:26.992Z,70.94
2018-11-26T01:23:01.823Z,70.85
2018-11-26T01:23:36.476Z,71.11
2018-11-26T01:24:11.211Z,71.19
2018-11-26T01:24:45.803Z,70.91
2018-11-26T01:25:20.485Z,70.84
2018-11-26T01:25:55.231Z,71.27
2018-11-26T01:26:29.878Z,70.99
2018-11-26T01:27:04.533Z,70.94
2018-11-26T01:27:39.127Z,71.38
2018-11-26T01:28:13.772Z,70.86
2018-11-26T01:28:48.414Z,71.06
2018-11-26T01:29:23.021Z,70.78
2018-11-26T01:29:57.691Z,71.09
2018-11-26T01:30:32.455Z,71.08
2018-11-26T01:31:07.139Z,71.44
2018-11-26T01:31:41.972Z,71.56
2018-11-26T01:32:16.563Z,71.28
2018-11-26T01:32:51.182Z,71.60
2018-11-26T01:33:26.066Z,71.88
2018-11-26T01:34:00.667Z,71.71
2018-11-26T01:34:35.380Z,71.86
2018-11-26T01:35:10.150Z,72.08
2018-11-26T01:35:44.776Z,71.96
2018-11-26T01:36:19.404Z,71.31
2018-11-26T01:36:54.148Z,71.21
2018-11-26T01:37:28.796Z,71.61
2018-11-26T01:38:03.477Z,71.05
2018-11-26T01:38:38.197Z,71.25
2018-11-26T01:39:45.469Z,71.61
2018-11-26T01:40:29.911Z,71.79
2018-11-26T01:41:04.872Z,71.87
2018-11-26T01:41:39.688Z,71.62
2018-11-26T01:42:14.348Z,72.08
2018-11-26T01:42:49.555Z,71.92
2018-11-26T01:43:24.200Z,71.02
2018-11-26T01:43:58.795Z,72.13
2018-11-26T01:44:33.472Z,72.36
2018-11-26T01:45:08.128Z,72.01
2018-11-26T01:45:42.851Z,72.58
2018-11-26T01:46:17.600Z,72.20
2018-11-26T01:46:52.238Z,72.50
2018-11-26T01:47:26.926Z,72.87
2018-11-26T01:48:01.553Z,72.67
2018-11-26T01:48:36.266Z,72.83
2018-11-26T01:49:11.246Z,72.49
2018-11-26T01:49:46.013Z,72.71
2018-11-26T01:50:21.134Z,72.68
2018-11-26T01:50:55.753Z,73.25
2018-11-26T01:51:30.439Z,73.10
2018-11-26T01:52:05.439Z,73.08
2018-11-26T01:52:40.172Z,72.96
2018-11-26T01:53:14.912Z,73.32
2018-11-26T01:53:49.560Z,73.25
2018-11-26T01:54:24.579Z,73.18
2018-11-26T01:54:59.199Z,73.02
2018-11-26T01:55:33.857Z,72.95
2018-11-26T01:56:08.664Z,73.08
2018-11-26T01:56:43.336Z,73.70
2018-11-26T01:57:17.976Z,73.54
2018-11-26T01:57:52.595Z,73.00
2018-11-26T01:58:27.266Z,73.17
2018-11-26T01:59:01.887Z,73.65
2018-11-26T01:59:36.683Z,73.75
2018-11-26T02:00:16.072Z,74.12
2018-11-26T02:00:50.694Z,73.88
2018-11-26T02:01:25.439Z,74.36
2018-11-26T02:02:00.585Z,74.38
2018-11-26T02:02:35.386Z,73.96
2018-11-26T02:03:10.079Z,74.42
2018-11-26T02:03:44.752Z,74.06
2018-11-26T02:04:19.393Z,74.59
2018-11-26T02:04:54.029Z,74.42
2018-11-26T02:05:28.669Z,73.83
2018-11-26T02:06:03.295Z,74.31
2018-11-26T02:06:38.016Z,74.28
2018-11-26T02:07:12.877Z,74.02
2018-11-26T02:07:47.537Z,74.33
2018-11-26T02:08:22.194Z,74.39
2018-11-26T02:08:57.000Z,73.99
2018-11-26T02:09:31.619Z,74.50
2018-11-26T02:10:12.072Z,74.43
2018-11-26T02:10:46.716Z,74.28
2018-11-26T02:11:21.655Z,73.92
2018-11-26T02:11:56.276Z,74.62
2018-11-26T02:12:30.913Z,74.35
2018-11-26T02:13:06.318Z,74.79
2018-11-26T02:13:41.136Z,74.56
2018-11-26T02:14:15.959Z,74.74
2018-11-26T02:14:50.623Z,74.69
2018-11-26T02:15:37.088Z,74.19
2018-11-26T02:16:12.081Z,74.12
2018-11-26T02:16:46.752Z,73.86
2018-11-26T02:17:21.433Z,73.78
2018-11-26T02:17:56.454Z,73.84
2018-11-26T02:18:31.191Z,73.65
2018-11-26T02:19:06.419Z,73.91
2018-11-26T02:19:41.437Z,73.98
2018-11-26T02:20:16.387Z,73.98
2018-11-26T02:20:50.952Z,74.04
2018-11-26T02:21:25.600Z,74.03
2018-11-26T02:22:00.289Z,73.34
2018-11-26T02:22:34.907Z,73.32
2018-11-26T02:23:09.771Z,74.05
2018-11-26T02:23:44.485Z,73.62
2018-11-26T02:24:19.567Z,73.80
2018-11-26T02:24:54.163Z,73.59
2018-11-26T02:25:28.788Z,73.68
2018-11-26T02:26:03.494Z,73.30
2018-11-26T02:26:38.151Z,73.78
2018-11-26T02:27:12.953Z,73.82
2018-11-26T02:27:47.612Z,73.52
2018-11-26T02:28:22.530Z,73.55
2018-11-26T02:28:57.173Z,72.87
2018-11-26T02:29:31.816Z,73.05
2018-11-26T02:30:07.779Z,72.83
2018-11-26T02:30:42.929Z,72.89
2018-11-26T02:31:17.565Z,72.80
2018-11-26T02:31:52.265Z,72.93
2018-11-26T02:32:26.891Z,73.21
2018-11-26T02:33:01.895Z,73.15
2018-11-26T02:33:36.499Z,72.86
2018-11-26T02:34:11.295Z,72.91
2018-11-26T02:34:45.996Z,72.91
2018-11-26T02:35:20.928Z,72.95
2018-11-26T02:35:55.550Z,72.82
2018-11-26T02:36:30.131Z,73.05
2018-11-26T02:37:04.733Z,73.20
2018-11-26T02:37:39.546Z,72.74
2018-11-26T02:38:14.604Z,72.63
2018-11-26T02:38:49.236Z,72.85
2018-11-26T02:39:23.947Z,72.81
2018-11-26T02:39:58.527Z,72.61
2018-11-26T02:40:33.840Z,72.63
2018-11-26T02:41:08.475Z,73.05
2018-11-26T02:41:43.496Z,73.09
2018-11-26T02:42:18.352Z,72.75
2018-11-26T02:42:53.350Z,73.25
2018-11-26T02:43:28.033Z,73.10
2018-11-26T02:44:03.136Z,72.65
2018-11-26T02:44:37.834Z,72.99
2018-11-26T02:45:12.476Z,72.52
2018-11-26T02:45:47.544Z,72.82
2018-11-26T02:46:22.605Z,72.90
2018-11-26T02:46:57.171Z,72.76
2018-11-26T02:47:31.963Z,73.15
2018-11-26T02:48:07.015Z,72.78
2018-11-26T02:48:41.684Z,72.43
2018-11-26T02:49:16.353Z,72.52
2018-11-26T02:49:51.424Z,73.13
2018-11-26T02:50:26.065Z,73.05
2018-11-26T02:51:00.747Z,72.92
2018-11-26T02:51:35.558Z,72.60
2018-11-26T02:52:10.182Z,73.02
2018-11-26T02:52:44.795Z,72.97
2018-11-26T02:53:19.460Z,73.35
2018-11-26T02:53:54.314Z,73.37
2018-11-26T02:54:28.903Z,73.62
2018-11-26T02:55:03.565Z,73.49
2018-11-26T02:55:38.453Z,72.55
2018-11-26T02:56:13.067Z,73.33
2018-11-26T02:56:47.662Z,73.41
2018-11-26T02:57:22.296Z,73.12
2018-11-26T02:57:56.882Z,73.15
2018-11-26T02:58:31.517Z,73.27
2018-11-26T02:59:06.682Z,72.93
2018-11-26T02:59:41.368Z,73.09
2018-11-26T03:00:16.044Z,72.93
2018-11-26T03:00:50.787Z,73.17
2018-11-26T03:01:26.417Z,73.28
2018-11-26T03:02:01.038Z,72.79
2018-11-26T03:02:35.701Z,72.76
2018-11-26T03:03:10.865Z,72.45
2018-11-26T03:03:45.489Z,72.67
2018-11-26T03:04:20.110Z,72.63
2018-11-26T03:04:54.764Z,72.57
2018-11-26T03:05:30.315Z,73.22
2018-11-26T03:06:05.468Z,72.77
2018-11-26T03:06:40.416Z,72.58
2018-11-26T03:07:15.306Z,72.34
2018-11-26T03:07:49.903Z,72.64
2018-11-26T03:08:24.544Z,73.03
2018-11-26T03:08:59.168Z,72.44
2018-11-26T03:09:33.768Z,72.38
2018-11-26T03:10:09.696Z,72.40
2018-11-26T03:10:44.312Z,72.49
2018-11-26T03:11:19.196Z,72.38
2018-11-26T03:11:53.803Z,72.18
2018-11-26T03:12:28.439Z,72.27
2018-11-26T03:13:03.188Z,72.65
2018-11-26T03:13:38.675Z,72.29
2018-11-26T03:15:16.564Z,72.23
2018-11-26T03:15:51.219Z,72.77
2018-11-26T03:16:25.891Z,72.62
2018-11-26T03:17:00.534Z,72.04
2018-11-26T03:17:35.162Z,72.15
2018-11-26T03:18:10.152Z,72.09
2018-11-26T03:18:44.872Z,72.24
2018-11-26T03:19:19.511Z,72.36
2018-11-26T03:19:54.116Z,72.40
2018-11-26T03:20:28.766Z,72.52
2018-11-26T03:21:03.467Z,71.40
2018-11-26T03:21:38.129Z,72.12
2018-11-26T03:22:12.747Z,71.84
2018-11-26T03:22:47.329Z,72.13
2018-11-26T03:23:21.961Z,71.61
2018-11-26T03:23:56.576Z,71.65
2018-11-26T03:24:31.208Z,71.78
2018-11-26T03:25:07.327Z,71.83
2018-11-26T03:25:42.096Z,72.03
2018-11-26T03:26:16.748Z,72.58
2018-11-26T03:26:51.346Z,72.61
2018-11-26T03:27:26.031Z,71.67
2018-11-26T03:28:00.659Z,71.54
2018-11-26T03:28:35.284Z,71.55
2018-11-26T03:29:09.993Z,71.81
2018-11-26T03:29:44.660Z,71.61
2018-11-26T03:30:20.654Z,71.56
2018-11-26T03:30:55.265Z,71.78
2018-11-26T03:31:29.924Z,72.06
2018-11-26T03:32:04.681Z,72.38
2018-11-26T03:32:39.573Z,71.85
2018-11-26T03:33:14.424Z,71.81
2018-11-26T03:33:49.109Z,71.68
2018-11-26T03:34:23.861Z,72.45
2018-11-26T03:34:58.494Z,72.32
2018-11-26T03:35:33.206Z,72.23
2018-11-26T03:36:08.215Z,71.95
2018-11-26T03:36:42.928Z,71.89
2018-11-26T03:37:17.530Z,72.20
2018-11-26T03:37:52.172Z,71.93
2018-11-26T03:39:00.680Z,72.62
2018-11-26T03:39:35.470Z,72.21
2018-11-26T03:40:11.580Z,71.89
2018-11-26T03:40:46.191Z,72.00
2018-11-26T03:41:21.441Z,72.13
2018-11-26T03:41:56.042Z,72.14
2018-11-26T03:42:30.651Z,71.90
2018-11-26T03:43:05.425Z,72.08
2018-11-26T03:43:40.099Z,72.07
2018-11-26T03:44:14.822Z,72.14
2018-11-26T03:44:49.522Z,71.95
2018-11-26T03:45:24.536Z,72.17
2018-11-26T03:45:59.144Z,71.48
2018-11-26T03:46:33.779Z,71.97
2018-11-26T03:47:08.489Z,72.12
2018-11-26T03:47:43.555Z,71.93
2018-11-26T03:48:18.256Z,72.09
2018-11-26T03:48:52.915Z,72.03
2018-11-26T03:49:27.534Z,71.92
2018-11-26T03:50:02.233Z,71.89
2018-11-26T03:50:36.884Z,71.86
2018-11-26T03:51:11.750Z,71.83
2018-11-26T03:51:46.421Z,72.11
2018-11-26T03:52:21.128Z,72.14
2018-11-26T03:52:55.769Z,71.29
2018-11-26T03:53:30.428Z,71.73
2018-11-26T03:54:05.675Z,71.23
2018-11-26T03:54:40.403Z,70.96
2018-11-26T03:55:15.176Z,71.38
2018-11-26T03:55:49.775Z,71.68
2018-11-26T03:56:24.433Z,71.73
2018-11-26T03:56:59.146Z,71.37
2018-11-26T03:57:33.794Z,71.97
2018-11-26T03:58:08.483Z,71.95
2018-11-26T03:58:43.494Z,71.57
2018-11-26T03:59:18.140Z,71.41
2018-11-26T03:59:52.840Z,71.44
2018-11-26T04:00:27.459Z,71.94
2018-11-26T04:01:02.166Z,72.09
2018-11-26T04:01:36.881Z,71.72
2018-11-26T04:02:11.637Z,72.40
2018-11-26T04:02:46.465Z,72.05
2018-11-26T04:03:21.256Z,71.93
2018-11-26T04:03:55.935Z,71.73
2018-11-26T04:04:30.552Z,72.37
2018-11-26T04:05:05.630Z,71.74
2018-11-26T04:05:40.310Z,72.12
2018-11-26T04:06:15.085Z,72.33
2018-11-26T04:06:49.793Z,71.59
2018-11-26T04:07:24.472Z,71.81
2018-11-26T04:07:59.106Z,72.42
2018-11-26T04:08:33.736Z,72.19
2018-11-26T04:09:09.159Z,72.34
2018-11-26T04:09:43.774Z,72.26
2018-11-26T04:10:18.468Z,72.32
2018-11-26T04:10:53.791Z,72.28
2018-11-26T04:11:28.740Z,71.74
2018-11-26T04:12:03.861Z,71.76
2018-11-26T04:12:38.489Z,72.06
2018-11-26T04:13:13.333Z,72.12
2018-11-26T04:13:48.238Z,71.69
2018-11-26T04:14:22.947Z,71.39
2018-11-26T04:14:57.524Z,71.80
2018-11-26T04:15:32.184Z,72.08
2018-11-26T04:16:06.992Z,71.52
2018-11-26T04:16:41.652Z,71.38
2018-11-26T04:17:16.807Z,71.85
2018-11-26T04:17:51.673Z,71.58
2018-11-26T04:18:26.657Z,72.21
2018-11-26T04:19:01.352Z,71.84
2018-11-26T04:19:36.116Z,72.07
2018-11-26T04:20:10.976Z,72.15
2018-11-26T04:20:45.673Z,71.45
2018-11-26T04:21:20.409Z,71.53
2018-11-26T04:21:55.150Z,71.68
2018-11-26T04:22:30.071Z,71.64
2018-11-26T04:23:04.759Z,71.86
2018-11-26T04:23:39.735Z,71.59
2018-11-26T04:24:14.398Z,71.71
2018-11-26T04:24:49.531Z,71.56
2018-11-26T04:25:24.388Z,71.81
2018-11-26T04:25:59.291Z,71.43
2018-11-26T04:26:34.096Z,72.03
2018-11-26T04:27:08.951Z,71.65
2018-11-26T04:27:43.759Z,71.77
2018-11-26T04:28:18.560Z,71.51
2018-11-26T04:28:53.227Z,71.41
2018-11-26T04:29:27.913Z,71.68
2018-11-26T04:30:02.665Z,71.76
2018-11-26T04:30:37.404Z,71.13
2018-11-26T04:31:12.043Z,71.87
2018-11-26T04:31:46.731Z,71.53
2018-11-26T04:32:21.607Z,71.76
2018-11-26T04:32:56.348Z,71.40
2018-11-26T04:33:31.074Z,71.81
2018-11-26T04:34:06.039Z,71.23
2018-11-26T04:34:40.705Z,70.68
2018-11-26T04:35:15.389Z,71.63
2018-11-26T04:35:50.412Z,71.75
2018-11-26T04:36:25.117Z,71.56
2018-11-26T04:36:59.755Z,71.41
2018-11-26T04:37:35.061Z,71.86
2018-11-26T04:38:09.848Z,71.49
2018-11-26T04:38:44.551Z,71.86
2018-11-26T04:39:19.293Z,71.63
2018-11-26T04:39:53.934Z,71.87
2018-11-26T04:40:28.564Z,71.41
2018-11-26T04:41:03.239Z,71.48
2018-11-26T04:41:37.948Z,71.73
2018-11-26T04:42:12.720Z,72.08
2018-11-26T04:42:47.401Z,72.09
2018-11-26T04:43:22.021Z,71.91
2018-11-26T04:43:56.707Z,71.56
2018-11-26T04:44:31.425Z,72.12
2018-11-26T04:45:07.971Z,72.51
2018-11-26T04:45:42.651Z,72.35
2018-11-26T04:46:17.476Z,72.22
2018-11-26T04:46:53.892Z,72.47
2018-11-26T04:47:28.533Z,72.38
2018-11-26T04:48:03.224Z,72.13
2018-11-26T04:48:37.875Z,71.84
2018-11-26T04:49:12.586Z,72.44
2018-11-26T04:49:47.299Z,72.15
2018-11-26T04:50:22.003Z,72.06
2018-11-26T04:50:56.762Z,72.64
2018-11-26T04:51:31.422Z,72.38
2018-11-26T04:52:06.831Z,72.59
2018-11-26T04:52:41.692Z,72.63
2018-11-26T04:53:16.338Z,72.20
2018-11-26T04:53:51.058Z,72.72
2018-11-26T04:54:25.785Z,72.58
2018-11-26T04:55:00.446Z,72.48
2018-11-26T04:55:35.099Z,72.14
2018-11-26T04:56:09.753Z,72.74
2018-11-26T04:56:44.484Z,72.64
2018-11-26T04:57:19.302Z,72.40
2018-11-26T04:57:54.135Z,72.49
2018-11-26T04:58:28.779Z,72.35
2018-11-26T04:59:03.490Z,72.49
2018-11-26T04:59:38.218Z,72.25
2018-11-26T05:00:15.218Z,72.11
2018-11-26T05:00:50.209Z,72.78
2018-11-26T05:01:25.020Z,72.46
2018-11-26T05:01:59.820Z,72.58
2018-11-26T05:02:34.484Z,72.23
2018-11-26T05:03:09.206Z,72.80
2018-11-26T05:03:44.285Z,73.08
2018-11-26T05:04:19.150Z,72.05
2018-11-26T05:04:53.834Z,72.83
2018-11-26T05:05:28.561Z,73.10
2018-11-26T05:06:03.263Z,72.96
2018-11-26T05:06:37.922Z,73.08
2018-11-26T05:07:12.705Z,72.87
2018-11-26T05:07:47.498Z,72.57
2018-11-26T05:08:22.256Z,72.78
2018-11-26T05:08:57.036Z,73.08
2018-11-26T05:09:31.749Z,72.15
2018-11-26T05:10:08.417Z,72.99
2018-11-26T05:10:43.056Z,72.46
2018-11-26T05:11:18.172Z,72.66
2018-11-26T05:11:52.897Z,72.85
2018-11-26T05:12:27.719Z,72.74
2018-11-26T05:13:02.387Z,73.30
2018-11-26T05:13:37.044Z,72.74
2018-11-26T05:14:11.725Z,72.68
2018-11-26T05:14:46.749Z,71.92
2018-11-26T05:15:21.483Z,71.95
2018-11-26T05:15:56.148Z,72.59
2018-11-26T05:16:30.816Z,71.78
2018-11-26T05:17:05.700Z,71.49
2018-11-26T05:17:40.410Z,72.22
2018-11-26T05:18:15.170Z,71.90
2018-11-26T05:18:49.928Z,72.03
2018-11-26T05:19:24.602Z,72.00
2018-11-26T05:19:59.320Z,72.54
2018-11-26T05:20:33.987Z,72.68
2018-11-26T05:21:08.685Z,72.71
2018-11-26T05:21:43.412Z,72.19
2018-11-26T05:22:18.510Z,72.68
2018-11-26T05:22:53.241Z,72.67
2018-11-26T05:23:27.977Z,72.53
2018-11-26T05:24:02.815Z,72.48
2018-11-26T05:24:37.450Z,72.30
2018-11-26T05:25:12.971Z,72.11
2018-11-26T05:25:47.834Z,72.12
2018-11-26T05:26:22.576Z,72.47
2018-11-26T05:26:57.269Z,72.21
2018-11-26T05:27:32.089Z,71.97
2018-11-26T05:28:07.164Z,72.50
2018-11-26T05:28:41.831Z,72.18
2018-11-26T05:29:16.525Z,71.98
2018-11-26T05:29:51.239Z,71.99
2018-11-26T05:30:26.097Z,71.80
2018-11-26T05:31:00.845Z,72.60
2018-11-26T05:31:35.694Z,72.07
2018-11-26T05:32:10.342Z,71.96
2018-11-26T05:32:45.236Z,72.02
2018-11-26T05:33:19.990Z,72.24
2018-11-26T05:33:54.725Z,71.69
2018-11-26T05:34:29.356Z,71.94
2018-11-26T05:35:04.761Z,72.65
2018-11-26T05:35:39.577Z,72.35
2018-11-26T05:36:14.345Z,72.61
2018-11-26T05:36:49.152Z,72.11
2018-11-26T05:37:23.819Z,72.68
2018-11-26T05:37:58.459Z,72.29
2018-11-26T05:38:33.089Z,72.33
2018-11-26T05:39:09.160Z,72.43
2018-11-26T05:39:43.851Z,71.87
2018-11-26T05:40:18.718Z,72.46
2018-11-26T05:40:53.580Z,72.49
2018-11-26T05:41:28.248Z,72.53
2018-11-26T05:42:02.892Z,72.35
2018-11-26T05:42:37.644Z,72.68
2018-11-26T05:43:12.304Z,72.62
2018-11-26T05:43:47.069Z,71.96
2018-11-26T05:44:21.871Z,72.03
2018-11-26T05:44:56.523Z,72.38
2018-11-26T05:45:31.652Z,72.76
2018-11-26T05:46:06.427Z,71.90
2018-11-26T05:46:41.111Z,72.29
2018-11-26T05:47:15.845Z,71.76
2018-11-26T05:47:50.568Z,72.10
2018-11-26T05:48:25.268Z,72.05
2018-11-26T05:48:59.967Z,71.81
2018-11-26T05:49:34.633Z,71.93
2018-11-26T05:50:10.676Z,72.25
2018-11-26T05:50:45.686Z,71.57
2018-11-26T05:51:20.613Z,71.56
2018-11-26T05:51:55.301Z,71.53
2018-11-26T05:52:29.986Z,71.48
2018-11-26T05:53:05.042Z,72.06
2018-11-26T05:53:39.759Z,71.90
2018-11-26T05:54:14.526Z,71.92
2018-11-26T05:54:49.114Z,71.35
2018-11-26T05:55:23.809Z,71.04
2018-11-26T05:55:58.444Z,70.79
2018-11-26T05:56:33.131Z,70.66
2018-11-26T05:57:07.730Z,70.49
2018-11-26T05:57:42.458Z,70.72
2018-11-26T05:58:17.333Z,70.89
2018-11-26T05:58:52.018Z,71.18
2018-11-26T05:59:26.687Z,71.42
2018-11-26T06:00:01.375Z,71.46
2018-11-26T06:00:36.595Z,70.89
2018-11-26T06:01:11.273Z,70.68
2018-11-26T06:01:46.061Z,70.45
2018-11-26T06:02:20.790Z,70.88
2018-11-26T06:02:55.443Z,70.95
2018-11-26T06:03:30.150Z,71.59
2018-11-26T06:04:04.923Z,71.66
2018-11-26T06:04:39.698Z,71.58
2018-11-26T06:05:14.865Z,71.86
2018-11-26T06:05:49.555Z,71.55
2018-11-26T06:06:24.274Z,71.72
2018-11-26T06:06:59.018Z,71.48
2018-11-26T06:07:33.686Z,71.78
2018-11-26T06:08:08.370Z,71.88
2018-11-26T06:08:43.012Z,71.91
2018-11-26T06:09:18.033Z,71.93
2018-11-26T06:09:52.639Z,71.97
2018-11-26T06:10:27.306Z,72.01
2018-11-26T06:11:01.991Z,71.42
2018-11-26T06:11:36.734Z,71.45
2018-11-26T06:12:11.417Z,71.61
2018-11-26T06:12:46.215Z,71.56
2018-11-26T06:13:20.936Z,71.69
2018-11-26T06:13:55.708Z,72.18
2018-11-26T06:14:30.556Z,71.96
2018-11-26T06:15:06.901Z,72.16
2018-11-26T06:15:41.540Z,72.40
2018-11-26T06:16:16.218Z,71.80
2018-11-26T06:16:53.633Z,71.95
2018-11-26T06:17:25.621Z,72.12
2018-11-26T06:18:00.261Z,72.23
2018-11-26T06:18:34.893Z,72.39
2018-11-26T06:19:09.497Z,72.36
2018-11-26T06:19:44.387Z,72.34
2018-11-26T06:20:19.734Z,72.06
2018-11-26T06:20:53.754Z,72.02
2018-11-26T06:21:28.438Z,71.57
2018-11-26T06:22:03.186Z,71.73
2018-11-26T06:22:37.866Z,72.00
2018-11-26T06:23:12.600Z,72.04
2018-11-26T06:23:47.298Z,72.17
2018-11-26T06:24:21.899Z,72.06
2018-11-26T06:24:56.633Z,72.26
2018-11-26T06:25:32.415Z,72.34
2018-11-26T06:26:07.139Z,71.95
2018-11-26T06:26:41.849Z,72.51
2018-11-26T06:27:16.560Z,72.52
2018-11-26T06:27:51.229Z,72.54
2018-11-26T06:28:25.850Z,72.45
2018-11-26T06:29:00.441Z,72.36
2018-11-26T06:29:35.219Z,72.70
2018-11-26T06:30:12.036Z,72.90
2018-11-26T06:30:46.823Z,72.73
2018-11-26T06:31:21.456Z,72.60
2018-11-26T06:31:56.182Z,72.94
2018-11-26T06:32:30.935Z,72.57
2018-11-26T06:33:06.270Z,73.27
2018-11-26T06:33:40.983Z,73.07
2018-11-26T06:34:15.668Z,72.69
2018-11-26T06:34:50.376Z,72.95
2018-11-26T06:35:25.141Z,72.84
2018-11-26T06:35:59.816Z,72.44
2018-11-26T06:36:34.843Z,72.39
2018-11-26T06:37:09.445Z,72.53
2018-11-26T06:37:44.244Z,72.25
2018-11-26T06:38:19.031Z,72.26
2018-11-26T06:38:53.713Z,72.60
2018-11-26T06:39:28.314Z,72.80
2018-11-26T06:40:03.069Z,72.72
2018-11-26T06:40:37.759Z,72.74
2018-11-26T06:41:12.934Z,73.14
2018-11-26T06:41:47.684Z,72.97
2018-11-26T06:42:22.372Z,72.72
2018-11-26T06:42:57.364Z,72.34
2018-11-26T06:43:31.966Z,72.98
2018-11-26T06:44:07.453Z,72.57
2018-11-26T06:44:42.116Z,72.51
2018-11-26T06:45:19.983Z,72.86
2018-11-26T06:45:54.624Z,72.62
2018-11-26T06:46:29.342Z,72.75
2018-11-26T06:47:04.094Z,72.68
2018-11-26T06:47:38.851Z,72.83
2018-11-26T06:48:13.530Z,72.52
2018-11-26T06:48:48.193Z,71.88
2018-11-26T06:49:22.825Z,72.35
2018-11-26T06:49:57.437Z,72.23
2018-11-26T06:50:32.073Z,72.35
2018-11-26T06:51:07.023Z,72.26
2018-11-26T06:51:41.715Z,71.70
2018-11-26T06:52:16.514Z,71.35
2018-11-26T06:52:51.615Z,71.11
2018-11-26T06:53:26.262Z,71.38
2018-11-26T06:54:01.085Z,71.61
2018-11-26T06:54:35.687Z,71.46
2018-11-26T06:55:14.275Z,71.65
2018-11-26T06:55:49.048Z,71.60
2018-11-26T06:56:23.729Z,71.41
2018-11-26T06:56:58.376Z,71.45
2018-11-26T06:57:33.021Z,71.58
2018-11-26T06:58:08.037Z,71.49
2018-11-26T06:58:42.651Z,71.17
2018-11-26T06:59:17.494Z,71.53
2018-11-26T06:59:52.185Z,71.00
2018-11-26T07:00:26.831Z,71.54
2018-11-26T07:01:01.509Z,71.56
2018-11-26T07:01:36.127Z,71.31
2018-11-26T07:02:10.959Z,71.32
2018-11-26T07:02:46.371Z,71.67
2018-11-26T07:03:21.434Z,71.47
2018-11-26T07:03:56.168Z,71.83
2018-11-26T07:04:30.792Z,71.41
2018-11-26T07:05:08.553Z,71.09
2018-11-26T07:05:43.441Z,71.16
2018-11-26T07:06:18.243Z,71.27
2018-11-26T07:06:52.899Z,71.00
2018-11-26T07:07:27.544Z,70.67
2018-11-26T07:08:02.229Z,70.87
2018-11-26T07:08:37.264Z,70.67
2018-11-26T07:09:18.520Z,70.96
2018-11-26T07:09:53.199Z,71.09
2018-11-26T07:10:28.147Z,71.01
2018-11-26T07:11:02.780Z,70.49
2018-11-26T07:11:37.825Z,71.41
2018-11-26T07:12:12.418Z,70.88
2018-11-26T07:12:47.069Z,70.53
2018-11-26T07:13:21.731Z,70.50
2018-11-26T07:13:56.439Z,70.63
2018-11-26T07:14:31.059Z,70.94
2018-11-26T07:15:08.023Z,71.43
2018-11-26T07:15:42.676Z,70.96
2018-11-26T07:16:17.326Z,71.50
2018-11-26T07:16:52.117Z,71.41
2018-11-26T07:17:26.842Z,71.43
2018-11-26T07:18:01.480Z,70.89
2018-11-26T07:18:36.755Z,71.20
2018-11-26T07:19:11.328Z,71.67
2018-11-26T07:19:46.185Z,70.91
2018-11-26T07:20:22.298Z,70.99
2018-11-26T07:20:56.909Z,70.82
2018-11-26T07:21:31.550Z,71.72
2018-11-26T07:22:06.655Z,70.87
2018-11-26T07:22:41.282Z,70.80
2018-11-26T07:23:15.950Z,71.32
2018-11-26T07:23:51.083Z,70.99
2018-11-26T07:24:25.786Z,70.93
2018-11-26T07:25:00.528Z,70.96
2018-11-26T07:25:35.111Z,71.07
2018-11-26T07:26:09.756Z,71.49
2018-11-26T07:26:44.415Z,70.71
2018-11-26T07:27:19.218Z,70.86
2018-11-26T07:27:55.337Z,71.08
2018-11-26T07:28:30.095Z,70.88
2018-11-26T07:29:05.388Z,70.67
2018-11-26T07:29:40.344Z,71.41
2018-11-26T07:30:19.330Z,71.01
2018-11-26T07:30:53.946Z,70.64
2018-11-26T07:31:28.609Z,71.18
2018-11-26T07:32:03.536Z,71.26